RPUK weather

Calapan Airport
Calapan City, Mindoro Oriental Province, Philippines

Public forecast

Using degrees Celsius for public forecast. Weather courtesy of forecast.io.

Closest aviation weather report (METAR) to Calapan Airport

Closest report is Ninoy Aquino International Airport, 66.1 nm (122.3 km) N. Retrieved 2019/10/24 03:00 UTC (22 minutes ago):

RPLL 240300Z VRB06KT 9999 FEW025 SCT100 33/23 Q1011 NOSIG RMK A2985

Closest aviation forecast (TAF) to Calapan Airport

Closest forecast is Ninoy Aquino International Airport, 66.1 nm (122.3 km) N. Retrieved 2019-10-24 00:00 UTC (3 hours ago):

TAF RPLL 232300Z 2400/2506 12006KT 9999 FEW025 TX34/2406Z TN27/2421Z TEMPO 2400/2406 14010KT FEW025 SCT100 TEMPO 2406/2412 FEW023CB SCT100